sensor_id;sensor_type;location;lat;lon;timestamp;temperature;humidity
21928;DHT22;11128;51.096;17.190;2022-09-27T00:02:08;9.60;99.90
21928;DHT22;11128;51.096;17.190;2022-09-27T00:07:09;9.60;99.90
21928;DHT22;11128;51.096;17.190;2022-09-27T00:12:12;9.70;99.90
21928;DHT22;11128;51.096;17.190;2022-09-27T00:17:13;9.70;99.90
21928;DHT22;11128;51.096;17.190;2022-09-27T00:22:14;9.70;99.90
21928;DHT22;11128;51.096;17.190;2022-09-27T00:27:16;9.60;99.90
21928;DHT22;11128;51.096;17.190;2022-09-27T00:32:18;9.70;99.90
21928;DHT22;11128;51.096;17.190;2022-09-27T00:37:19;9.70;99.90
21928;DHT22;11128;51.096;17.190;2022-09-27T00:42:21;9.70;99.90
21928;DHT22;11128;51.096;17.190;2022-09-27T00:52:44;9.60;99.90
21928;DHT22;11128;51.096;17.190;2022-09-27T00:57:49;9.50;99.90
21928;DHT22;11128;51.096;17.190;2022-09-27T01:02:53;9.50;99.90
21928;DHT22;11128;51.096;17.190;2022-09-27T01:07:55;9.40;99.90
21928;DHT22;11128;51.096;17.190;2022-09-27T01:28:48;9.00;99.90
21928;DHT22;11128;51.096;17.190;2022-09-27T01:49:21;8.80;99.90
21928;DHT22;11128;51.096;17.190;2022-09-27T01:55:03;8.80;99.90
21928;DHT22;11128;51.096;17.190;2022-09-27T02:00:06;8.80;99.90
21928;DHT22;11128;51.096;17.190;2022-09-27T02:05:10;8.80;99.90
21928;DHT22;11128;51.096;17.190;2022-09-27T02:10:18;8.90;99.90
21928;DHT22;11128;51.096;17.190;2022-09-27T02:15:21;9.00;99.90
21928;DHT22;11128;51.096;17.190;2022-09-27T02:20:38;9.00;99.90
21928;DHT22;11128;51.096;17.190;2022-09-27T02:25:45;9.00;99.90
21928;DHT22;11128;51.096;17.190;2022-09-27T02:30:50;8.90;99.90
21928;DHT22;11128;51.096;17.190;2022-09-27T02:35:52;8.90;99.90
21928;DHT22;11128;51.096;17.190;2022-09-27T02:40:53;8.80;99.90
21928;DHT22;11128;51.096;17.190;2022-09-27T03:07:24;8.80;99.90
21928;DHT22;11128;51.096;17.190;2022-09-27T03:12:26;8.90;99.90
21928;DHT22;11128;51.096;17.190;2022-09-27T03:17:28;8.90;99.90
21928;DHT22;11128;51.096;17.190;2022-09-27T03:22:29;8.90;99.90
21928;DHT22;11128;51.096;17.190;2022-09-27T03:27:30;8.80;99.90
21928;DHT22;11128;51.096;17.190;2022-09-27T03:32:32;8.80;99.90
21928;DHT22;11128;51.096;17.190;2022-09-27T03:37:34;8.70;99.90
21928;DHT22;11128;51.096;17.190;2022-09-27T03:42:36;8.70;99.90
21928;DHT22;11128;51.096;17.190;2022-09-27T03:47:40;8.70;99.90
21928;DHT22;11128;51.096;17.190;2022-09-27T03:52:42;8.70;99.90
21928;DHT22;11128;51.096;17.190;2022-09-27T03:57:44;8.70;99.90
21928;DHT22;11128;51.096;17.190;2022-09-27T04:02:46;8.70;99.90
21928;DHT22;11128;51.096;17.190;2022-09-27T04:07:48;8.70;99.90
21928;DHT22;11128;51.096;17.190;2022-09-27T04:12:50;8.80;99.90
21928;DHT22;11128;51.096;17.190;2022-09-27T04:17:52;8.80;99.90
21928;DHT22;11128;51.096;17.190;2022-09-27T04:22:54;8.70;99.90
21928;DHT22;11128;51.096;17.190;2022-09-27T04:27:55;8.80;99.90
21928;DHT22;11128;51.096;17.190;2022-09-27T04:32:56;8.80;99.90
21928;DHT22;11128;51.096;17.190;2022-09-27T04:37:58;8.70;99.90
21928;DHT22;11128;51.096;17.190;2022-09-27T04:43:00;8.70;99.90
21928;DHT22;11128;51.096;17.190;2022-09-27T04:48:02;8.70;99.90
21928;DHT22;11128;51.096;17.190;2022-09-27T04:53:04;8.70;99.90
21928;DHT22;11128;51.096;17.190;2022-09-27T04:58:05;8.80;99.90
21928;DHT22;11128;51.096;17.190;2022-09-27T05:03:07;8.80;99.90
21928;DHT22;11128;51.096;17.190;2022-09-27T05:08:09;8.90;99.90
21928;DHT22;11128;51.096;17.190;2022-09-27T05:13:10;8.90;99.90
21928;DHT22;11128;51.096;17.190;2022-09-27T05:18:12;8.90;99.90
21928;DHT22;11128;51.096;17.190;2022-09-27T05:23:13;8.90;99.90
21928;DHT22;11128;51.096;17.190;2022-09-27T05:28:15;8.90;99.90
21928;DHT22;11128;51.096;17.190;2022-09-27T05:33:16;8.80;99.90
21928;DHT22;11128;51.096;17.190;2022-09-27T05:38:21;8.90;99.90
21928;DHT22;11128;51.096;17.190;2022-09-27T05:43:22;8.90;99.90
21928;DHT22;11128;51.096;17.190;2022-09-27T05:48:25;8.90;99.90
21928;DHT22;11128;51.096;17.190;2022-09-27T05:53:26;8.90;99.90
21928;DHT22;11128;51.096;17.190;2022-09-27T05:58:28;9.00;99.90
21928;DHT22;11128;51.096;17.190;2022-09-27T06:03:29;9.10;99.90
21928;DHT22;11128;51.096;17.190;2022-09-27T06:08:34;9.20;99.90
21928;DHT22;11128;51.096;17.190;2022-09-27T06:13:36;9.30;99.90
21928;DHT22;11128;51.096;17.190;2022-09-27T06:18:37;9.30;99.90
21928;DHT22;11128;51.096;17.190;2022-09-27T06:23:42;9.40;99.90
21928;DHT22;11128;51.096;17.190;2022-09-27T06:28:43;9.50;99.90
21928;DHT22;11128;51.096;17.190;2022-09-27T06:33:46;9.60;99.90
21928;DHT22;11128;51.096;17.190;2022-09-27T06:38:47;9.60;99.90
21928;DHT22;11128;51.096;17.190;2022-09-27T06:43:49;9.60;99.90
21928;DHT22;11128;51.096;17.190;2022-09-27T06:48:52;9.70;99.90
21928;DHT22;11128;51.096;17.190;2022-09-27T06:53:53;9.70;99.90
21928;DHT22;11128;51.096;17.190;2022-09-27T06:58:54;9.80;99.90
21928;DHT22;11128;51.096;17.190;2022-09-27T07:04:18;10.00;99.90
21928;DHT22;11128;51.096;17.190;2022-09-27T07:09:19;10.00;99.90
21928;DHT22;11128;51.096;17.190;2022-09-27T07:14:20;10.10;99.90
21928;DHT22;11128;51.096;17.190;2022-09-27T07:19:22;10.30;99.90
21928;DHT22;11128;51.096;17.190;2022-09-27T07:24:24;10.30;99.90
21928;DHT22;11128;51.096;17.190;2022-09-27T07:29:25;10.30;99.90
21928;DHT22;11128;51.096;17.190;2022-09-27T07:34:26;10.40;99.90
21928;DHT22;11128;51.096;17.190;2022-09-27T07:39:28;10.50;99.90
21928;DHT22;11128;51.096;17.190;2022-09-27T07:44:30;10.50;99.90
21928;DHT22;11128;51.096;17.190;2022-09-27T07:49:31;10.60;99.90
21928;DHT22;11128;51.096;17.190;2022-09-27T07:54:32;10.50;99.90
21928;DHT22;11128;51.096;17.190;2022-09-27T07:59:33;10.60;99.90
21928;DHT22;11128;51.096;17.190;2022-09-27T08:04:35;10.70;99.90
21928;DHT22;11128;51.096;17.190;2022-09-27T08:09:36;10.70;99.90
21928;DHT22;11128;51.096;17.190;2022-09-27T08:14:38;10.80;99.90
21928;DHT22;11128;51.096;17.190;2022-09-27T08:19:39;10.90;99.90
21928;DHT22;11128;51.096;17.190;2022-09-27T08:24:41;11.00;99.90
21928;DHT22;11128;51.096;17.190;2022-09-27T08:29:43;11.00;99.90
21928;DHT22;11128;51.096;17.190;2022-09-27T08:34:44;11.10;99.90
21928;DHT22;11128;51.096;17.190;2022-09-27T08:39:45;11.10;99.90
21928;DHT22;11128;51.096;17.190;2022-09-27T08:55:03;11.10;99.90
21928;DHT22;11128;51.096;17.190;2022-09-27T09:00:10;11.20;99.90
21928;DHT22;11128;51.096;17.190;2022-09-27T09:05:33;11.20;99.90
21928;DHT22;11128;51.096;17.190;2022-09-27T09:10:50;11.20;99.90
21928;DHT22;11128;51.096;17.190;2022-09-27T09:16:24;11.30;99.90
21928;DHT22;11128;51.096;17.190;2022-09-27T09:21:37;11.50;99.90
21928;DHT22;11128;51.096;17.190;2022-09-27T09:42:48;11.70;99.90
21928;DHT22;11128;51.096;17.190;2022-09-27T09:53:38;12.00;99.90
21928;DHT22;11128;51.096;17.190;2022-09-27T09:58:47;12.00;99.90
21928;DHT22;11128;51.096;17.190;2022-09-27T10:03:53;12.10;99.90
21928;DHT22;11128;51.096;17.190;2022-09-27T10:08:55;12.20;99.90
21928;DHT22;11128;51.096;17.190;2022-09-27T10:13:57;12.20;99.90
21928;DHT22;11128;51.096;17.190;2022-09-27T10:19:01;12.30;99.90
21928;DHT22;11128;51.096;17.190;2022-09-27T10:24:07;12.50;99.90
21928;DHT22;11128;51.096;17.190;2022-09-27T10:34:30;12.50;99.90
21928;DHT22;11128;51.096;17.190;2022-09-27T10:39:33;12.50;99.90
21928;DHT22;11128;51.096;17.190;2022-09-27T10:44:37;12.50;99.90
21928;DHT22;11128;51.096;17.190;2022-09-27T10:49:41;12.50;99.90
21928;DHT22;11128;51.096;17.190;2022-09-27T11:00:00;12.60;99.90
21928;DHT22;11128;51.096;17.190;2022-09-27T11:05:10;12.60;99.90
21928;DHT22;11128;51.096;17.190;2022-09-27T11:10:42;12.60;99.90
21928;DHT22;11128;51.096;17.190;2022-09-27T11:16:17;12.60;99.90
21928;DHT22;11128;51.096;17.190;2022-09-27T11:21:40;12.60;99.90
21928;DHT22;11128;51.096;17.190;2022-09-27T11:32:09;12.60;99.90
21928;DHT22;11128;51.096;17.190;2022-09-27T11:42:44;12.70;99.90
21928;DHT22;11128;51.096;17.190;2022-09-27T12:04:35;13.10;99.90
21928;DHT22;11128;51.096;17.190;2022-09-27T12:09:51;13.20;99.90
21928;DHT22;11128;51.096;17.190;2022-09-27T12:15:12;13.30;99.90
21928;DHT22;11128;51.096;17.190;2022-09-27T12:20:19;13.40;99.90
21928;DHT22;11128;51.096;17.190;2022-09-27T12:25:23;13.40;99.90
21928;DHT22;11128;51.096;17.190;2022-09-27T12:30:26;13.40;99.90
21928;DHT22;11128;51.096;17.190;2022-09-27T12:35:30;13.50;99.90
21928;DHT22;11128;51.096;17.190;2022-09-27T12:40:34;13.50;99.90
21928;DHT22;11128;51.096;17.190;2022-09-27T12:50:52;13.50;99.90
21928;DHT22;11128;51.096;17.190;2022-09-27T13:12:20;13.30;99.90
21928;DHT22;11128;51.096;17.190;2022-09-27T13:22:44;13.20;99.90
21928;DHT22;11128;51.096;17.190;2022-09-27T13:27:46;13.20;99.90
21928;DHT22;11128;51.096;17.190;2022-09-27T13:38:21;13.20;99.90
21928;DHT22;11128;51.096;17.190;2022-09-27T13:43:38;13.20;99.90
21928;DHT22;11128;51.096;17.190;2022-09-27T13:48:58;13.10;99.90
21928;DHT22;11128;51.096;17.190;2022-09-27T13:54:08;13.10;99.90
21928;DHT22;11128;51.096;17.190;2022-09-27T13:59:42;13.10;99.90
21928;DHT22;11128;51.096;17.190;2022-09-27T14:04:48;13.20;99.90
21928;DHT22;11128;51.096;17.190;2022-09-27T14:09:53;13.30;99.90
21928;DHT22;11128;51.096;17.190;2022-09-27T14:14:56;13.30;99.90
21928;DHT22;11128;51.096;17.190;2022-09-27T14:19:59;13.50;99.90
21928;DHT22;11128;51.096;17.190;2022-09-27T14:25:01;13.60;99.90
21928;DHT22;11128;51.096;17.190;2022-09-27T14:30:16;13.60;99.90
21928;DHT22;11128;51.096;17.190;2022-09-27T14:35:22;13.70;99.90
21928;DHT22;11128;51.096;17.190;2022-09-27T14:40:53;13.70;99.90
21928;DHT22;11128;51.096;17.190;2022-09-27T14:46:00;13.60;99.90
21928;DHT22;11128;51.096;17.190;2022-09-27T14:56:18;13.60;99.90
21928;DHT22;11128;51.096;17.190;2022-09-27T15:01:22;13.50;99.90
21928;DHT22;11128;51.096;17.190;2022-09-27T15:06:24;13.60;99.90
21928;DHT22;11128;51.096;17.190;2022-09-27T15:11:26;13.50;99.90
21928;DHT22;11128;51.096;17.190;2022-09-27T15:16:30;13.50;99.90
21928;DHT22;11128;51.096;17.190;2022-09-27T15:21:34;13.50;99.90
21928;DHT22;11128;51.096;17.190;2022-09-27T15:26:45;13.40;99.90
21928;DHT22;11128;51.096;17.190;2022-09-27T15:31:57;13.30;99.90
21928;DHT22;11128;51.096;17.190;2022-09-27T15:37:03;13.20;99.90
21928;DHT22;11128;51.096;17.190;2022-09-27T15:42:11;13.20;99.90
21928;DHT22;11128;51.096;17.190;2022-09-27T15:47:38;13.20;99.90
21928;DHT22;11128;51.096;17.190;2022-09-27T15:52:48;13.00;99.90
21928;DHT22;11128;51.096;17.190;2022-09-27T15:57:57;13.00;99.90
21928;DHT22;11128;51.096;17.190;2022-09-27T16:03:00;12.90;99.90
21928;DHT22;11128;51.096;17.190;2022-09-27T16:08:01;12.90;99.90
21928;DHT22;11128;51.096;17.190;2022-09-27T16:13:02;12.90;99.90
21928;DHT22;11128;51.096;17.190;2022-09-27T16:18:04;12.80;99.90
21928;DHT22;11128;51.096;17.190;2022-09-27T16:23:06;12.90;99.90
21928;DHT22;11128;51.096;17.190;2022-09-27T16:28:09;12.80;99.90
21928;DHT22;11128;51.096;17.190;2022-09-27T16:33:10;12.80;99.90
21928;DHT22;11128;51.096;17.190;2022-09-27T16:38:12;12.80;99.90
21928;DHT22;11128;51.096;17.190;2022-09-27T16:43:13;12.80;99.90
21928;DHT22;11128;51.096;17.190;2022-09-27T16:48:15;12.80;99.90
21928;DHT22;11128;51.096;17.190;2022-09-27T16:53:17;12.70;99.90
21928;DHT22;11128;51.096;17.190;2022-09-27T16:58:18;12.50;99.90
21928;DHT22;11128;51.096;17.190;2022-09-27T17:03:20;12.30;99.90
21928;DHT22;11128;51.096;17.190;2022-09-27T17:08:25;12.10;99.90
21928;DHT22;11128;51.096;17.190;2022-09-27T17:13:26;12.00;99.90
21928;DHT22;11128;51.096;17.190;2022-09-27T17:18:28;11.90;99.90
21928;DHT22;11128;51.096;17.190;2022-09-27T17:23:30;11.80;99.90
21928;DHT22;11128;51.096;17.190;2022-09-27T17:28:33;11.60;99.90
21928;DHT22;11128;51.096;17.190;2022-09-27T17:33:43;11.60;99.90
21928;DHT22;11128;51.096;17.190;2022-09-27T17:38:46;11.50;99.90
21928;DHT22;11128;51.096;17.190;2022-09-27T17:43:52;11.40;99.90
21928;DHT22;11128;51.096;17.190;2022-09-27T17:48:55;11.30;99.90
21928;DHT22;11128;51.096;17.190;2022-09-27T17:54:16;11.20;99.90
21928;DHT22;11128;51.096;17.190;2022-09-27T17:59:19;11.10;99.90
21928;DHT22;11128;51.096;17.190;2022-09-27T18:04:20;11.00;99.90
21928;DHT22;11128;51.096;17.190;2022-09-27T18:09:25;11.00;99.90
21928;DHT22;11128;51.096;17.190;2022-09-27T18:14:27;10.80;99.90
21928;DHT22;11128;51.096;17.190;2022-09-27T18:19:29;10.70;99.90
21928;DHT22;11128;51.096;17.190;2022-09-27T18:24:32;10.70;99.90
21928;DHT22;11128;51.096;17.190;2022-09-27T18:29:34;10.60;99.90
21928;DHT22;11128;51.096;17.190;2022-09-27T18:34:36;10.50;99.90
21928;DHT22;11128;51.096;17.190;2022-09-27T18:39:40;10.70;99.90
21928;DHT22;11128;51.096;17.190;2022-09-27T18:44:41;10.50;99.90
21928;DHT22;11128;51.096;17.190;2022-09-27T18:49:43;10.20;99.90
21928;DHT22;11128;51.096;17.190;2022-09-27T18:54:46;10.10;99.90
21928;DHT22;11128;51.096;17.190;2022-09-27T18:59:47;10.20;99.90
21928;DHT22;11128;51.096;17.190;2022-09-27T19:04:49;10.30;99.90
21928;DHT22;11128;51.096;17.190;2022-09-27T19:09:51;10.30;99.90
21928;DHT22;11128;51.096;17.190;2022-09-27T19:14:53;10.40;99.90
21928;DHT22;11128;51.096;17.190;2022-09-27T19:19:55;10.40;99.90
21928;DHT22;11128;51.096;17.190;2022-09-27T19:24:58;10.20;99.90
21928;DHT22;11128;51.096;17.190;2022-09-27T19:30:00;10.10;99.90
21928;DHT22;11128;51.096;17.190;2022-09-27T19:35:03;9.90;99.90
21928;DHT22;11128;51.096;17.190;2022-09-27T19:40:06;10.00;99.90
21928;DHT22;11128;51.096;17.190;2022-09-27T19:45:08;10.00;99.90
21928;DHT22;11128;51.096;17.190;2022-09-27T19:50:14;9.90;99.90
21928;DHT22;11128;51.096;17.190;2022-09-27T19:55:17;9.90;99.90
21928;DHT22;11128;51.096;17.190;2022-09-27T20:00:19;10.00;99.90
21928;DHT22;11128;51.096;17.190;2022-09-27T20:05:20;9.90;99.90
21928;DHT22;11128;51.096;17.190;2022-09-27T20:10:22;9.90;99.90
21928;DHT22;11128;51.096;17.190;2022-09-27T20:15:24;9.70;99.90
21928;DHT22;11128;51.096;17.190;2022-09-27T20:20:25;9.50;99.90
21928;DHT22;11128;51.096;17.190;2022-09-27T20:25:27;9.30;99.90
21928;DHT22;11128;51.096;17.190;2022-09-27T20:30:30;9.20;99.90
21928;DHT22;11128;51.096;17.190;2022-09-27T20:35:31;9.30;99.90
21928;DHT22;11128;51.096;17.190;2022-09-27T20:40:34;9.40;99.90
21928;DHT22;11128;51.096;17.190;2022-09-27T20:45:36;9.50;99.90
21928;DHT22;11128;51.096;17.190;2022-09-27T20:50:38;9.40;99.90
21928;DHT22;11128;51.096;17.190;2022-09-27T20:55:39;9.10;99.90
21928;DHT22;11128;51.096;17.190;2022-09-27T21:00:40;8.70;99.90
21928;DHT22;11128;51.096;17.190;2022-09-27T21:05:42;8.50;99.90
21928;DHT22;11128;51.096;17.190;2022-09-27T21:10:44;8.40;99.90
21928;DHT22;11128;51.096;17.190;2022-09-27T21:15:46;8.20;99.90
21928;DHT22;11128;51.096;17.190;2022-09-27T21:20:58;8.20;99.90
21928;DHT22;11128;51.096;17.190;2022-09-27T21:31:11;8.00;99.90
21928;DHT22;11128;51.096;17.190;2022-09-27T21:36:13;8.00;99.90
21928;DHT22;11128;51.096;17.190;2022-09-27T21:41:15;8.20;99.90
21928;DHT22;11128;51.096;17.190;2022-09-27T21:46:23;8.30;99.90
21928;DHT22;11128;51.096;17.190;2022-09-27T21:51:26;8.60;99.90
21928;DHT22;11128;51.096;17.190;2022-09-27T21:56:29;8.80;99.90
21928;DHT22;11128;51.096;17.190;2022-09-27T22:01:33;8.90;99.90
21928;DHT22;11128;51.096;17.190;2022-09-27T22:06:36;9.00;99.90
21928;DHT22;11128;51.096;17.190;2022-09-27T22:11:41;9.10;99.90
21928;DHT22;11128;51.096;17.190;2022-09-27T22:16:47;9.10;99.90
21928;DHT22;11128;51.096;17.190;2022-09-27T22:21:49;9.20;99.90
21928;DHT22;11128;51.096;17.190;2022-09-27T22:26:50;9.30;99.90
21928;DHT22;11128;51.096;17.190;2022-09-27T22:31:53;9.20;99.90
21928;DHT22;11128;51.096;17.190;2022-09-27T22:36:56;9.20;99.90
21928;DHT22;11128;51.096;17.190;2022-09-27T22:42:01;9.30;99.90
21928;DHT22;11128;51.096;17.190;2022-09-27T22:47:02;9.40;99.90
21928;DHT22;11128;51.096;17.190;2022-09-27T22:52:04;9.40;99.90
21928;DHT22;11128;51.096;17.190;2022-09-27T22:57:05;9.40;99.90
21928;DHT22;11128;51.096;17.190;2022-09-27T23:02:07;9.40;99.90
21928;DHT22;11128;51.096;17.190;2022-09-27T23:07:08;9.40;99.90
21928;DHT22;11128;51.096;17.190;2022-09-27T23:12:11;9.40;99.90
21928;DHT22;11128;51.096;17.190;2022-09-27T23:17:12;9.40;99.90
21928;DHT22;11128;51.096;17.190;2022-09-27T23:22:16;9.40;99.90
21928;DHT22;11128;51.096;17.190;2022-09-27T23:27:17;9.40;99.90
21928;DHT22;11128;51.096;17.190;2022-09-27T23:32:37;9.30;99.90
21928;DHT22;11128;51.096;17.190;2022-09-27T23:37:39;9.30;99.90
21928;DHT22;11128;51.096;17.190;2022-09-27T23:42:41;9.40;99.90
21928;DHT22;11128;51.096;17.190;2022-09-27T23:47:42;9.40;99.90
21928;DHT22;11128;51.096;17.190;2022-09-27T23:52:44;9.40;99.90
21928;DHT22;11128;51.096;17.190;2022-09-27T23:57:45;9.30;99.90
